Time,TemperatureF,DewpointF,PressureIn,WindDirection,WindDirectionDegrees,WindSpeedMPH,WindSpeedGustMPH,Humidity,HourlyPrecipIn,Conditions,Clouds,dailyrainin,SoftwareType,DateUTC
2013-07-23 00:01:00,78.7,72.8,29.76,WNW,288,3.0,10.0,82,0.00,,,0.00,WUHU216DAVISVP2,2013-07-23 04:01:00,
2013-07-23 00:06:00,78.4,72.5,29.77,WNW,296,8.0,13.0,82,0.05,,,0.05,WUHU216DAVISVP2,2013-07-23 04:06:00,
2013-07-23 00:11:00,76.8,71.9,29.78,WSW,256,2.0,13.0,85,0.19,,,0.19,WUHU216DAVISVP2,2013-07-23 04:11:00,
2013-07-23 00:16:00,75.4,71.9,29.76,WNW,282,4.0,13.0,89,0.27,,,0.27,WUHU216DAVISVP2,2013-07-23 04:16:00,
2013-07-23 00:21:00,74.5,71.4,29.76,WSW,255,0.0,13.0,90,0.27,,,0.27,WUHU216DAVISVP2,2013-07-23 04:21:00,
2013-07-23 00:26:00,74.0,71.2,29.76,WSW,255,0.0,11.0,91,0.27,,,0.27,WUHU216DAVISVP2,2013-07-23 04:26:00,
2013-07-23 00:31:00,73.7,71.2,29.75,WSW,255,0.0,7.0,92,0.27,,,0.27,WUHU216DAVISVP2,2013-07-23 04:31:00,
2013-07-23 00:36:00,73.4,71.3,29.75,WSW,255,0.0,2.0,93,0.27,,,0.27,WUHU216DAVISVP2,2013-07-23 04:36:00,
2013-07-23 00:41:00,73.2,71.3,29.75,WSW,255,0.0,1.0,94,0.27,,,0.27,WUHU216DAVISVP2,2013-07-23 04:41:00,
2013-07-23 00:46:00,73.1,71.2,29.75,WSW,255,0.0,1.0,94,0.27,,,0.27,WUHU216DAVISVP2,2013-07-23 04:46:00,
2013-07-23 00:51:00,73.0,71.5,29.75,SW,217,0.0,3.0,95,0.27,,,0.27,WUHU216DAVISVP2,2013-07-23 04:51:00,
2013-07-23 00:56:00,72.9,71.4,29.76,SW,217,0.0,3.0,95,0.28,,,0.28,WUHU216DAVISVP2,2013-07-23 04:56:00,
2013-07-23 01:01:00,72.9,71.4,29.75,SW,217,0.0,3.0,95,0.28,,,0.28,WUHU216DAVISVP2,2013-07-23 05:01:00,
2013-07-23 01:06:00,72.8,71.6,29.74,SE,136,0.0,3.0,96,0.26,,,0.31,WUHU216DAVISVP2,2013-07-23 05:06:00,
2013-07-23 01:11:00,72.7,71.5,29.74,South,173,2.0,2.0,96,0.17,,,0.36,WUHU216DAVISVP2,2013-07-23 05:11:00,
2013-07-23 01:16:00,72.5,71.3,29.73,South,185,0.0,2.0,96,0.09,,,0.36,WUHU216DAVISVP2,2013-07-23 05:16:00,
2013-07-23 01:21:00,72.5,71.3,29.73,South,185,0.0,2.0,96,0.09,,,0.36,WUHU216DAVISVP2,2013-07-23 05:21:00,
2013-07-23 01:26:00,72.4,71.2,29.72,South,185,0.0,2.0,96,0.09,,,0.36,WUHU216DAVISVP2,2013-07-23 05:26:00,
2013-07-23 01:31:00,72.4,71.2,29.72,South,185,1.0,2.0,96,0.10,,,0.37,WUHU216DAVISVP2,2013-07-23 05:31:00,
2013-07-23 01:36:00,72.3,71.1,29.72,South,185,1.0,2.0,96,0.10,,,0.37,WUHU216DAVISVP2,2013-07-23 05:36:00,
2013-07-23 01:41:00,72.3,71.4,29.72,South,185,0.0,2.0,97,0.10,,,0.37,WUHU216DAVISVP2,2013-07-23 05:41:00,
2013-07-23 01:46:00,72.2,71.0,29.72,South,185,0.0,2.0,96,0.10,,,0.37,WUHU216DAVISVP2,2013-07-23 05:46:00,
2013-07-23 01:51:00,72.2,71.3,29.72,South,185,0.0,1.0,97,0.10,,,0.37,WUHU216DAVISVP2,2013-07-23 05:51:00,
2013-07-23 01:56:00,72.2,71.3,29.72,South,185,0.0,2.0,97,0.09,,,0.37,WUHU216DAVISVP2,2013-07-23 05:56:00,
2013-07-23 02:01:00,72.2,71.3,29.72,South,185,0.0,2.0,97,0.09,,,0.37,WUHU216DAVISVP2,2013-07-23 06:01:00,
2013-07-23 02:06:00,72.3,71.4,29.72,South,185,0.0,2.0,97,0.06,,,0.37,WUHU216DAVISVP2,2013-07-23 06:06:00,
2013-07-23 02:11:00,72.3,71.4,29.72,South,185,0.0,2.0,97,0.01,,,0.37,WUHU216DAVISVP2,2013-07-23 06:11:00,
2013-07-23 02:16:00,72.3,71.4,29.72,South,185,0.0,1.0,97,0.01,,,0.37,WUHU216DAVISVP2,2013-07-23 06:16:00,
2013-07-23 02:21:00,72.3,71.4,29.72,South,185,0.0,1.0,97,0.01,,,0.37,WUHU216DAVISVP2,2013-07-23 06:21:00,
2013-07-23 02:26:00,72.4,71.8,29.72,South,185,0.0,1.0,98,0.01,,,0.37,WUHU216DAVISVP2,2013-07-23 06:26:00,
2013-07-23 02:31:00,72.4,71.8,29.72,South,185,0.0,1.0,98,0.00,,,0.37,WUHU216DAVISVP2,2013-07-23 06:31:00,
2013-07-23 02:36:00,72.4,71.8,29.72,South,185,0.0,1.0,98,0.00,,,0.37,WUHU216DAVISVP2,2013-07-23 06:36:00,
2013-07-23 02:41:00,72.4,71.8,29.72,South,185,0.0,1.0,98,0.00,,,0.37,WUHU216DAVISVP2,2013-07-23 06:41:00,
2013-07-23 02:46:00,72.4,71.8,29.72,South,185,0.0,1.0,98,0.00,,,0.37,WUHU216DAVISVP2,2013-07-23 06:46:00,
2013-07-23 02:51:00,72.4,71.8,29.72,South,185,0.0,1.0,98,0.00,,,0.37,WUHU216DAVISVP2,2013-07-23 06:51:00,
2013-07-23 02:56:00,72.4,71.8,29.72,South,185,0.0,1.0,98,0.00,,,0.37,WUHU216DAVISVP2,2013-07-23 06:56:00,
2013-07-23 03:01:00,72.4,71.8,29.72,South,185,0.0,1.0,98,0.00,,,0.37,WUHU216DAVISVP2,2013-07-23 07:01:00,
2013-07-23 03:06:00,72.4,71.8,29.72,South,185,0.0,1.0,98,0.00,,,0.37,WUHU216DAVISVP2,2013-07-23 07:06:00,
2013-07-23 03:11:00,72.4,71.8,29.71,South,185,0.0,0.0,98,0.00,,,0.37,WUHU216DAVISVP2,2013-07-23 07:11:00,
2013-07-23 03:16:00,72.4,71.8,29.71,South,185,0.0,0.0,98,0.00,,,0.37,WUHU216DAVISVP2,2013-07-23 07:16:00,
2013-07-23 03:21:00,72.4,71.8,29.71,South,185,0.0,0.0,98,0.00,,,0.37,WUHU216DAVISVP2,2013-07-23 07:21:00,
2013-07-23 03:26:00,72.4,71.8,29.71,South,185,0.0,0.0,98,0.00,,,0.37,WUHU216DAVISVP2,2013-07-23 07:26:00,
2013-07-23 03:31:00,72.3,71.4,29.71,South,185,0.0,0.0,97,0.00,,,0.37,WUHU216DAVISVP2,2013-07-23 07:31:00,
2013-07-23 03:36:00,72.3,71.4,29.71,South,185,0.0,0.0,97,0.00,,,0.37,WUHU216DAVISVP2,2013-07-23 07:36:00,
2013-07-23 03:41:00,72.3,71.7,29.71,South,185,0.0,0.0,98,0.00,,,0.37,WUHU216DAVISVP2,2013-07-23 07:41:00,
2013-07-23 03:46:00,72.3,71.7,29.71,South,185,0.0,0.0,98,0.00,,,0.37,WUHU216DAVISVP2,2013-07-23 07:46:00,
2013-07-23 03:51:00,72.3,71.7,29.70,South,185,0.0,0.0,98,0.00,,,0.37,WUHU216DAVISVP2,2013-07-23 07:51:00,
2013-07-23 03:56:00,72.3,71.7,29.70,South,185,0.0,0.0,98,0.00,,,0.37,WUHU216DAVISVP2,2013-07-23 07:56:00,
2013-07-23 04:01:00,72.3,71.7,29.70,South,185,0.0,0.0,98,0.00,,,0.37,WUHU216DAVISVP2,2013-07-23 08:01:00,
2013-07-23 04:06:00,72.3,71.7,29.70,South,185,0.0,0.0,98,0.00,,,0.37,WUHU216DAVISVP2,2013-07-23 08:06:00,
2013-07-23 04:11:00,72.3,71.7,29.70,South,185,0.0,0.0,98,0.00,,,0.37,WUHU216DAVISVP2,2013-07-23 08:11:00,
2013-07-23 04:16:00,72.2,71.6,29.70,South,185,0.0,0.0,98,0.00,,,0.37,WUHU216DAVISVP2,2013-07-23 08:16:00,
2013-07-23 04:21:00,72.3,71.7,29.70,South,185,0.0,1.0,98,0.00,,,0.37,WUHU216DAVISVP2,2013-07-23 08:21:00,
2013-07-23 04:26:00,72.3,71.7,29.69,South,185,0.0,1.0,98,0.00,,,0.37,WUHU216DAVISVP2,2013-07-23 08:26:00,
2013-07-23 04:31:00,72.3,71.7,29.69,South,185,0.0,1.0,98,0.00,,,0.37,WUHU216DAVISVP2,2013-07-23 08:31:00,
2013-07-23 04:36:00,72.3,71.7,29.69,South,185,0.0,1.0,98,0.00,,,0.37,WUHU216DAVISVP2,2013-07-23 08:36:00,
2013-07-23 04:41:00,72.3,71.7,29.69,South,185,0.0,0.0,98,0.00,,,0.37,WUHU216DAVISVP2,2013-07-23 08:41:00,
2013-07-23 04:46:00,72.2,71.6,29.69,South,185,0.0,0.0,98,0.00,,,0.37,WUHU216DAVISVP2,2013-07-23 08:46:00,
2013-07-23 04:51:00,72.2,71.6,29.69,South,185,0.0,0.0,98,0.00,,,0.37,WUHU216DAVISVP2,2013-07-23 08:51:00,
2013-07-23 04:56:00,72.1,71.5,29.69,South,185,0.0,0.0,98,0.00,,,0.37,WUHU216DAVISVP2,2013-07-23 08:56:00,
2013-07-23 05:01:00,72.1,71.5,29.69,South,185,0.0,0.0,98,0.00,,,0.37,WUHU216DAVISVP2,2013-07-23 09:01:00,
2013-07-23 05:06:00,72.1,71.5,29.69,South,185,0.0,0.0,98,0.00,,,0.37,WUHU216DAVISVP2,2013-07-23 09:06:00,
2013-07-23 05:11:00,72.0,71.4,29.69,South,185,0.0,0.0,98,0.00,,,0.37,WUHU216DAVISVP2,2013-07-23 09:11:00,
2013-07-23 05:16:00,72.0,71.4,29.69,South,185,0.0,0.0,98,0.00,,,0.37,WUHU216DAVISVP2,2013-07-23 09:16:00,
2013-07-23 05:21:00,71.9,71.3,29.69,South,185,0.0,0.0,98,0.00,,,0.37,WUHU216DAVISVP2,2013-07-23 09:21:00,
2013-07-23 05:26:00,71.8,71.2,29.69,South,185,0.0,0.0,98,0.00,,,0.37,WUHU216DAVISVP2,2013-07-23 09:26:00,
2013-07-23 05:31:00,71.8,71.2,29.69,South,185,0.0,0.0,98,0.00,,,0.37,WUHU216DAVISVP2,2013-07-23 09:31:00,
2013-07-23 05:36:00,71.8,71.2,29.69,South,185,0.0,0.0,98,0.00,,,0.37,WUHU216DAVISVP2,2013-07-23 09:36:00,
2013-07-23 05:41:00,71.8,71.2,29.69,South,185,0.0,0.0,98,0.00,,,0.37,WUHU216DAVISVP2,2013-07-23 09:41:00,
2013-07-23 05:46:00,71.9,71.3,29.69,South,185,0.0,0.0,98,0.00,,,0.37,WUHU216DAVISVP2,2013-07-23 09:46:00,
2013-07-23 05:51:00,72.0,71.4,29.69,South,185,0.0,1.0,98,0.00,,,0.37,WUHU216DAVISVP2,2013-07-23 09:51:00,
2013-07-23 05:56:00,72.1,71.5,29.68,South,185,0.0,1.0,98,0.00,,,0.37,WUHU216DAVISVP2,2013-07-23 09:56:00,
2013-07-23 06:01:00,72.1,71.5,29.69,South,185,0.0,1.0,98,0.00,,,0.37,WUHU216DAVISVP2,2013-07-23 10:01:00,
2013-07-23 06:06:00,72.1,71.5,29.69,South,185,0.0,1.0,98,0.00,,,0.37,WUHU216DAVISVP2,2013-07-23 10:06:00,
2013-07-23 06:11:00,72.2,71.6,29.69,South,185,0.0,0.0,98,0.00,,,0.37,WUHU216DAVISVP2,2013-07-23 10:11:00,
2013-07-23 06:16:00,72.3,71.7,29.69,South,185,0.0,0.0,98,0.00,,,0.37,WUHU216DAVISVP2,2013-07-23 10:16:00,
2013-07-23 06:21:00,72.3,71.7,29.69,South,185,0.0,0.0,98,0.00,,,0.37,WUHU216DAVISVP2,2013-07-23 10:21:00,
2013-07-23 06:26:00,72.4,71.8,29.69,South,185,0.0,0.0,98,0.00,,,0.37,WUHU216DAVISVP2,2013-07-23 10:26:00,
2013-07-23 06:31:00,72.5,72.2,29.69,South,185,0.0,0.0,99,0.00,,,0.37,WUHU216DAVISVP2,2013-07-23 10:31:00,
2013-07-23 06:36:00,72.5,72.2,29.69,South,186,0.0,0.0,99,0.00,,,0.37,WUHU216DAVISVP2,2013-07-23 10:36:00,
2013-07-23 06:41:00,72.8,72.5,29.70,South,186,1.0,1.0,99,0.00,,,0.37,WUHU216DAVISVP2,2013-07-23 10:41:00,
2013-07-23 06:46:00,72.7,72.1,29.69,South,186,0.0,1.0,98,0.00,,,0.37,WUHU216DAVISVP2,2013-07-23 10:46:00,
2013-07-23 06:51:00,72.7,72.4,29.69,NW,309,1.0,3.0,99,0.00,,,0.37,WUHU216DAVISVP2,2013-07-23 10:51:00,
2013-07-23 06:56:00,72.8,72.2,29.69,NW,309,0.0,3.0,98,0.00,,,0.37,WUHU216DAVISVP2,2013-07-23 10:56:00,
2013-07-23 07:01:00,72.8,72.2,29.69,NW,309,0.0,3.0,98,0.00,,,0.37,WUHU216DAVISVP2,2013-07-23 11:01:00,
2013-07-23 07:06:00,72.9,72.3,29.69,NW,309,1.0,3.0,98,0.00,,,0.37,WUHU216DAVISVP2,2013-07-23 11:06:00,
2013-07-23 07:11:00,72.8,72.2,29.69,NW,309,0.0,3.0,98,0.00,,,0.37,WUHU216DAVISVP2,2013-07-23 11:11:00,
2013-07-23 07:16:00,72.9,72.3,29.69,NW,309,0.0,3.0,98,0.00,,,0.37,WUHU216DAVISVP2,2013-07-23 11:16:00,
2013-07-23 07:21:00,72.9,72.3,29.69,NW,309,0.0,3.0,98,0.00,,,0.37,WUHU216DAVISVP2,2013-07-23 11:21:00,
2013-07-23 07:26:00,73.0,72.4,29.69,NW,309,2.0,2.0,98,0.00,,,0.37,WUHU216DAVISVP2,2013-07-23 11:26:00,
2013-07-23 07:31:00,73.0,72.4,29.69,NW,309,0.0,3.0,98,0.00,,,0.37,WUHU216DAVISVP2,2013-07-23 11:31:00,
2013-07-23 07:36:00,73.1,72.8,29.69,NW,309,0.0,3.0,99,0.00,,,0.37,WUHU216DAVISVP2,2013-07-23 11:36:00,
2013-07-23 07:41:00,73.3,73.0,29.69,NW,309,0.0,3.0,99,0.00,,,0.37,WUHU216DAVISVP2,2013-07-23 11:41:00,
2013-07-23 07:46:00,73.5,73.2,29.69,WNW,303,0.0,3.0,99,0.00,,,0.37,WUHU216DAVISVP2,2013-07-23 11:46:00,
2013-07-23 07:51:00,73.5,72.9,29.69,WSW,244,3.0,4.0,98,0.00,,,0.37,WUHU216DAVISVP2,2013-07-23 11:51:00,
2013-07-23 07:56:00,73.5,72.9,29.69,WSW,244,0.0,4.0,98,0.00,,,0.37,WUHU216DAVISVP2,2013-07-23 11:56:00,
2013-07-23 08:01:00,73.5,72.9,29.69,WSW,252,2.0,5.0,98,0.00,,,0.37,WUHU216DAVISVP2,2013-07-23 12:01:00,
2013-07-23 08:06:00,73.6,73.0,29.69,WSW,253,2.0,5.0,98,0.00,,,0.37,WUHU216DAVISVP2,2013-07-23 12:06:00,
2013-07-23 08:11:00,73.7,73.1,29.69,WSW,253,2.0,5.0,98,0.00,,,0.37,WUHU216DAVISVP2,2013-07-23 12:11:00,
2013-07-23 08:16:00,73.7,73.1,29.69,WSW,253,0.0,5.0,98,0.00,,,0.37,WUHU216DAVISVP2,2013-07-23 12:16:00,
2013-07-23 08:21:00,73.8,73.2,29.69,WNW,298,0.0,4.0,98,0.00,,,0.37,WUHU216DAVISVP2,2013-07-23 12:21:00,
2013-07-23 08:26:00,73.7,72.8,29.69,WNW,298,0.0,4.0,97,0.00,,,0.37,WUHU216DAVISVP2,2013-07-23 12:26:00,
2013-07-23 08:31:00,73.9,73.0,29.69,WNW,298,0.0,4.0,97,0.00,,,0.37,WUHU216DAVISVP2,2013-07-23 12:31:00,
2013-07-23 08:36:00,74.0,73.1,29.69,WNW,298,0.0,4.0,97,0.00,,,0.37,WUHU216DAVISVP2,2013-07-23 12:36:00,
2013-07-23 08:41:00,74.1,73.2,29.69,WNW,298,0.0,3.0,97,0.00,,,0.37,WUHU216DAVISVP2,2013-07-23 12:41:00,
2013-07-23 08:46:00,74.3,73.4,29.69,WNW,298,2.0,2.0,97,0.00,,,0.37,WUHU216DAVISVP2,2013-07-23 12:46:00,
2013-07-23 08:51:00,74.4,73.5,29.69,WNW,298,0.0,3.0,97,0.00,,,0.37,WUHU216DAVISVP2,2013-07-23 12:51:00,
2013-07-23 08:56:00,74.4,73.2,29.69,West,277,0.0,4.0,96,0.00,,,0.37,WUHU216DAVISVP2,2013-07-23 12:56:00,
2013-07-23 09:01:00,74.6,73.4,29.69,West,277,0.0,5.0,96,0.00,,,0.37,WUHU216DAVISVP2,2013-07-23 13:01:00,
2013-07-23 09:06:00,74.7,73.5,29.69,West,279,2.0,5.0,96,0.00,,,0.37,WUHU216DAVISVP2,2013-07-23 13:06:00,
2013-07-23 09:11:00,74.9,73.7,29.69,West,261,0.0,5.0,96,0.00,,,0.37,WUHU216DAVISVP2,2013-07-23 13:11:00,
2013-07-23 09:16:00,75.5,74.3,29.69,West,264,0.0,6.0,96,0.00,,,0.37,WUHU216DAVISVP2,2013-07-23 13:16:00,
2013-07-23 09:21:00,75.8,73.9,29.69,West,270,1.0,6.0,94,0.00,,,0.37,WUHU216DAVISVP2,2013-07-23 13:21:00,
2013-07-23 09:26:00,76.3,74.7,29.69,West,277,0.0,6.0,95,0.00,,,0.37,WUHU216DAVISVP2,2013-07-23 13:26:00,
2013-07-23 09:31:00,76.8,74.6,29.68,West,279,2.0,6.0,93,0.00,,,0.37,WUHU216DAVISVP2,2013-07-23 13:31:00,
2013-07-23 09:36:00,77.1,74.6,29.69,West,278,5.0,5.0,92,0.00,,,0.37,WUHU216DAVISVP2,2013-07-23 13:36:00,
2013-07-23 09:41:00,77.2,74.0,29.69,WNW,289,0.0,5.0,90,0.00,,,0.37,WUHU216DAVISVP2,2013-07-23 13:41:00,
2013-07-23 09:46:00,77.6,74.4,29.69,West,269,4.0,6.0,90,0.00,,,0.37,WUHU216DAVISVP2,2013-07-23 13:46:00,
2013-07-23 09:51:00,78.1,74.6,29.68,West,265,3.0,7.0,89,0.00,,,0.37,WUHU216DAVISVP2,2013-07-23 13:51:00,
2013-07-23 09:56:00,78.3,74.1,29.68,WSW,244,2.0,7.0,87,0.00,,,0.37,WUHU216DAVISVP2,2013-07-23 13:56:00,
2013-07-23 10:01:00,78.7,74.9,29.68,West,265,3.0,7.0,88,0.00,,,0.37,WUHU216DAVISVP2,2013-07-23 14:01:00,
2013-07-23 10:06:00,79.3,74.8,29.68,West,269,0.0,6.0,86,0.00,,,0.37,WUHU216DAVISVP2,2013-07-23 14:06:00,
2013-07-23 10:11:00,79.9,74.7,29.68,WSW,249,4.0,6.0,84,0.00,,,0.37,WUHU216DAVISVP2,2013-07-23 14:11:00,
2013-07-23 10:16:00,80.4,74.1,29.68,West,272,2.0,9.0,81,0.00,,,0.37,WUHU216DAVISVP2,2013-07-23 14:16:00,
2013-07-23 10:21:00,80.9,75.0,29.68,WNW,295,1.0,9.0,82,0.00,,,0.37,WUHU216DAVISVP2,2013-07-23 14:21:00,
2013-07-23 10:26:00,81.3,75.4,29.68,NNW,335,1.0,9.0,82,0.00,,,0.37,WUHU216DAVISVP2,2013-07-23 14:26:00,
2013-07-23 10:31:00,81.9,74.9,29.67,WNW,300,0.0,9.0,79,0.00,,,0.37,WUHU216DAVISVP2,2013-07-23 14:31:00,
2013-07-23 10:36:00,82.0,75.0,29.67,NNW,337,4.0,6.0,79,0.00,,,0.37,WUHU216DAVISVP2,2013-07-23 14:36:00,
2013-07-23 10:41:00,82.1,75.1,29.67,West,274,1.0,6.0,79,0.00,,,0.37,WUHU216DAVISVP2,2013-07-23 14:41:00,
2013-07-23 10:46:00,82.4,74.6,29.67,WNW,285,2.0,6.0,77,0.00,,,0.37,WUHU216DAVISVP2,2013-07-23 14:46:00,
2013-07-23 10:51:00,82.3,74.5,29.67,SW,225,0.0,7.0,77,0.00,,,0.37,WUHU216DAVISVP2,2013-07-23 14:51:00,
2013-07-23 10:56:00,81.9,74.1,29.67,West,263,3.0,8.0,77,0.00,,,0.37,WUHU216DAVISVP2,2013-07-23 14:56:00,
2013-07-23 11:01:00,82.1,74.3,29.67,NW,305,1.0,9.0,77,0.00,,,0.37,WUHU216DAVISVP2,2013-07-23 15:01:00,
2013-07-23 11:06:00,82.3,74.2,29.67,NW,310,0.0,9.0,76,0.00,,,0.37,WUHU216DAVISVP2,2013-07-23 15:06:00,
2013-07-23 11:11:00,82.0,73.7,29.67,NW,304,0.0,10.0,76,0.00,,,0.37,WUHU216DAVISVP2,2013-07-23 15:11:00,
2013-07-23 11:16:00,82.3,75.3,29.67,NW,310,0.0,10.0,79,0.00,,,0.37,WUHU216DAVISVP2,2013-07-23 15:16:00,
2013-07-23 11:21:00,82.7,74.4,29.67,NW,309,1.0,10.0,76,0.00,,,0.37,WUHU216DAVISVP2,2013-07-23 15:21:00,
2013-07-23 11:26:00,83.0,74.6,29.67,WSW,244,3.0,10.0,76,0.00,,,0.37,WUHU216DAVISVP2,2013-07-23 15:26:00,
2013-07-23 11:31:00,83.3,74.5,29.67,WSW,251,4.0,10.0,75,0.00,,,0.37,WUHU216DAVISVP2,2013-07-23 15:31:00,
2013-07-23 11:36:00,83.5,75.7,29.67,West,266,3.0,10.0,77,0.00,,,0.37,WUHU216DAVISVP2,2013-07-23 15:36:00,
2013-07-23 11:41:00,83.5,74.3,29.67,NW,317,2.0,10.0,74,0.00,,,0.37,WUHU216DAVISVP2,2013-07-23 15:41:00,
2013-07-23 11:46:00,83.1,74.2,29.67,West,280,3.0,10.0,74,0.00,,,0.37,WUHU216DAVISVP2,2013-07-23 15:46:00,
2013-07-23 11:51:00,82.5,74.3,29.67,West,259,3.0,10.0,76,0.00,,,0.37,WUHU216DAVISVP2,2013-07-23 15:51:00,
2013-07-23 11:56:00,82.3,74.2,29.67,West,269,1.0,10.0,76,0.00,,,0.37,WUHU216DAVISVP2,2013-07-23 15:56:00,
2013-07-23 12:01:00,82.7,75.3,29.67,WNW,302,2.0,10.0,78,0.00,,,0.37,WUHU216DAVISVP2,2013-07-23 16:01:00,
2013-07-23 12:06:00,83.3,75.1,29.67,West,267,0.0,7.0,76,0.00,,,0.37,WUHU216DAVISVP2,2013-07-23 16:06:00,
2013-07-23 12:11:00,83.9,75.1,29.67,ESE,117,1.0,7.0,75,0.00,,,0.37,WUHU216DAVISVP2,2013-07-23 16:11:00,
2013-07-23 12:16:00,84.0,73.8,29.67,West,280,1.0,8.0,71,0.00,,,0.37,WUHU216DAVISVP2,2013-07-23 16:16:00,
2013-07-23 12:21:00,84.4,75.0,29.67,West,259,5.0,8.0,73,0.00,,,0.37,WUHU216DAVISVP2,2013-07-23 16:21:00,
2013-07-23 12:26:00,85.0,74.8,29.67,WSW,258,5.0,8.0,71,0.00,,,0.37,WUHU216DAVISVP2,2013-07-23 16:26:00,
2013-07-23 12:31:00,85.0,73.5,29.67,North,355,0.0,8.0,68,0.00,,,0.37,WUHU216DAVISVP2,2013-07-23 16:31:00,
2013-07-23 12:36:00,84.7,72.8,29.67,WNW,284,4.0,10.0,67,0.00,,,0.37,WUHU216DAVISVP2,2013-07-23 16:36:00,
2013-07-23 12:41:00,84.8,72.6,29.67,WNW,292,3.0,10.0,67,0.00,,,0.37,WUHU216DAVISVP2,2013-07-23 16:41:00,
2013-07-23 12:46:00,85.2,73.3,29.67,SW,232,7.0,10.0,67,0.00,,,0.37,WUHU216DAVISVP2,2013-07-23 16:46:00,
2013-07-23 12:51:00,85.2,73.7,29.67,West,261,6.0,12.0,68,0.00,,,0.37,WUHU216DAVISVP2,2013-07-23 16:51:00,
2013-07-23 12:56:00,84.8,73.3,29.67,West,263,3.0,12.0,68,0.00,,,0.37,WUHU216DAVISVP2,2013-07-23 16:56:00,
2013-07-23 13:01:00,85.0,73.5,29.67,West,268,3.0,12.0,68,0.00,,,0.37,WUHU216DAVISVP2,2013-07-23 17:01:00,
2013-07-23 13:06:00,85.6,73.7,29.67,NW,313,2.0,10.0,67,0.00,,,0.37,WUHU216DAVISVP2,2013-07-23 17:06:00,
2013-07-23 13:11:00,85.4,72.3,29.66,NW,324,0.0,10.0,65,0.00,,,0.37,WUHU216DAVISVP2,2013-07-23 17:11:00,
2013-07-23 13:16:00,85.6,72.3,29.66,WSW,257,2.0,10.0,64,0.00,,,0.37,WUHU216DAVISVP2,2013-07-23 17:16:00,
2013-07-23 13:21:00,85.9,73.2,29.66,SW,236,2.0,9.0,66,0.00,,,0.37,WUHU216DAVISVP2,2013-07-23 17:21:00,
2013-07-23 13:26:00,86.0,73.8,29.65,West,276,5.0,10.0,67,0.00,,,0.37,WUHU216DAVISVP2,2013-07-23 17:26:00,
2013-07-23 13:31:00,85.7,73.8,29.66,West,277,1.0,10.0,67,0.00,,,0.37,WUHU216DAVISVP2,2013-07-23 17:31:00,
2013-07-23 13:36:00,85.1,72.5,29.66,SW,236,4.0,10.0,66,0.00,,,0.37,WUHU216DAVISVP2,2013-07-23 17:36:00,
2013-07-23 13:41:00,85.1,73.3,29.66,West,271,6.0,13.0,68,0.00,,,0.37,WUHU216DAVISVP2,2013-07-23 17:41:00,
2013-07-23 13:46:00,85.6,72.9,29.65,NNW,329,0.0,13.0,66,0.00,,,0.37,WUHU216DAVISVP2,2013-07-23 17:46:00,
2013-07-23 13:52:00,86.2,74.2,29.65,WNW,289,3.0,13.0,67,0.00,,,0.37,WUHU216DAVISVP2,2013-07-23 17:52:00,
2013-07-23 13:57:00,86.5,73.2,29.65,West,273,8.0,13.0,64,0.00,,,0.37,WUHU216DAVISVP2,2013-07-23 17:57:00,
2013-07-23 14:02:00,86.5,74.5,29.65,NNW,327,3.0,10.0,67,0.00,,,0.37,WUHU216DAVISVP2,2013-07-23 18:02:00,
2013-07-23 14:07:00,87.2,74.0,29.65,WNW,282,1.0,10.0,65,0.00,,,0.37,WUHU216DAVISVP2,2013-07-23 18:07:00,
2013-07-23 14:12:00,87.5,71.7,29.65,WSW,258,3.0,11.0,59,0.00,,,0.37,WUHU216DAVISVP2,2013-07-23 18:12:00,
2013-07-23 14:17:00,87.4,72.8,29.65,WNW,299,3.0,11.0,62,0.00,,,0.37,WUHU216DAVISVP2,2013-07-23 18:17:00,
2013-07-23 14:23:00,87.1,71.5,29.66,NNW,342,1.0,14.0,60,0.00,,,0.37,WUHU216DAVISVP2,2013-07-23 18:23:00,
2013-07-23 14:28:00,87.1,72.3,29.65,WSW,254,5.0,14.0,61,0.00,,,0.37,WUHU216DAVISVP2,2013-07-23 18:28:00,
2013-07-23 14:33:00,87.4,73.1,29.66,WNW,288,4.0,14.0,62,0.00,,,0.37,WUHU216DAVISVP2,2013-07-23 18:33:00,
2013-07-23 14:38:00,87.6,72.8,29.65,West,263,5.0,14.0,61,0.00,,,0.37,WUHU216DAVISVP2,2013-07-23 18:38:00,
2013-07-23 14:43:00,87.7,72.1,29.65,WNW,286,5.0,12.0,60,0.00,,,0.37,WUHU216DAVISVP2,2013-07-23 18:43:00,
2013-07-23 14:49:00,87.3,72.5,29.65,WNW,290,0.0,12.0,61,0.00,,,0.37,WUHU216DAVISVP2,2013-07-23 18:49:00,
2013-07-23 14:54:00,87.4,74.0,29.65,WNW,296,5.0,11.0,64,0.00,,,0.37,WUHU216DAVISVP2,2013-07-23 18:54:00,
2013-07-23 14:59:00,86.7,72.6,29.65,WNW,291,1.0,10.0,63,0.00,,,0.37,WUHU216DAVISVP2,2013-07-23 18:59:00,
2013-07-23 15:04:00,86.3,72.2,29.65,WSW,247,4.0,10.0,63,0.00,,,0.37,WUHU216DAVISVP2,2013-07-23 19:04:00,
2013-07-23 15:09:00,86.3,73.4,29.65,WNW,302,2.0,10.0,65,0.00,,,0.37,WUHU216DAVISVP2,2013-07-23 19:09:00,
2013-07-23 15:14:00,86.7,72.6,29.65,SSW,212,7.0,13.0,63,0.00,,,0.37,WUHU216DAVISVP2,2013-07-23 19:14:00,
2013-07-23 15:19:00,86.7,72.4,29.65,WNW,293,4.0,14.0,62,0.00,,,0.37,WUHU216DAVISVP2,2013-07-23 19:19:00,
2013-07-23 15:24:00,87.1,73.3,29.65,West,267,1.0,14.0,63,0.00,,,0.37,WUHU216DAVISVP2,2013-07-23 19:24:00,
2013-07-23 15:30:00,87.2,73.5,29.65,West,269,0.0,14.0,64,0.00,,,0.37,WUHU216DAVISVP2,2013-07-23 19:30:00,
2013-07-23 15:35:00,87.4,72.6,29.65,West,275,4.0,14.0,61,0.00,,,0.37,WUHU216DAVISVP2,2013-07-23 19:35:00,
2013-07-23 15:40:00,87.5,73.2,29.65,NW,313,2.0,16.0,62,0.00,,,0.37,WUHU216DAVISVP2,2013-07-23 19:40:00,
2013-07-23 15:46:00,87.2,72.4,29.64,West,279,5.0,16.0,61,0.00,,,0.37,WUHU216DAVISVP2,2013-07-23 19:46:00,
2013-07-23 15:52:00,87.1,72.8,29.64,NW,304,2.0,16.0,62,0.00,,,0.37,WUHU216DAVISVP2,2013-07-23 19:52:00,
2013-07-23 15:57:00,87.1,73.7,29.64,WNW,282,1.0,16.0,64,0.00,,,0.37,WUHU216DAVISVP2,2013-07-23 19:57:00,
2013-07-23 16:02:00,87.4,72.1,29.64,West,265,8.0,15.0,60,0.00,,,0.37,WUHU216DAVISVP2,2013-07-23 20:02:00,
2013-07-23 16:07:00,87.5,72.9,29.64,West,263,4.0,15.0,62,0.00,,,0.37,WUHU216DAVISVP2,2013-07-23 20:07:00,
2013-07-23 16:12:00,87.5,72.7,29.64,SW,221,6.0,15.0,61,0.00,,,0.37,WUHU216DAVISVP2,2013-07-23 20:12:00,
2013-07-23 16:17:00,87.6,73.7,29.64,SW,215,9.0,15.0,63,0.00,,,0.37,WUHU216DAVISVP2,2013-07-23 20:17:00,
2013-07-23 16:22:00,88.0,74.8,29.64,WNW,287,1.0,17.0,65,0.00,,,0.37,WUHU216DAVISVP2,2013-07-23 20:22:00,
2013-07-23 16:27:00,88.2,73.8,29.65,SW,236,4.0,17.0,62,0.00,,,0.37,WUHU216DAVISVP2,2013-07-23 20:27:00,
2013-07-23 16:32:00,88.1,73.2,29.64,WNW,283,1.0,17.0,61,0.00,,,0.37,WUHU216DAVISVP2,2013-07-23 20:32:00,
2013-07-23 16:37:00,87.4,72.6,29.64,WNW,300,4.0,12.0,61,0.00,,,0.37,WUHU216DAVISVP2,2013-07-23 20:37:00,
2013-07-23 16:42:00,86.8,72.2,29.64,WNW,282,3.0,13.0,62,0.00,,,0.37,WUHU216DAVISVP2,2013-07-23 20:42:00,
2013-07-23 16:47:00,86.7,72.9,29.64,West,264,6.0,13.0,63,0.00,,,0.37,WUHU216DAVISVP2,2013-07-23 20:47:00,
2013-07-23 16:52:00,86.8,71.0,29.64,WNW,288,2.0,13.0,59,0.00,,,0.37,WUHU216DAVISVP2,2013-07-23 20:52:00,
2013-07-23 16:58:00,86.8,71.0,29.64,WNW,290,10.0,13.0,59,0.00,,,0.37,WUHU216DAVISVP2,2013-07-23 20:58:00,
2013-07-23 17:03:00,86.8,70.5,29.64,NNW,337,0.0,11.0,58,0.00,,,0.37,WUHU216DAVISVP2,2013-07-23 21:03:00,
2013-07-23 17:09:00,86.8,70.5,29.64,NW,304,3.0,18.0,58,0.00,,,0.37,WUHU216DAVISVP2,2013-07-23 21:09:00,
2013-07-23 17:14:00,86.6,71.3,29.64,West,276,11.0,18.0,60,0.00,,,0.37,WUHU216DAVISVP2,2013-07-23 21:14:00,
2013-07-23 17:19:00,86.5,71.2,29.64,SW,226,7.0,18.0,60,0.00,,,0.37,WUHU216DAVISVP2,2013-07-23 21:19:00,
2013-07-23 17:24:00,86.4,70.9,29.64,WSW,258,2.0,18.0,60,0.00,,,0.37,WUHU216DAVISVP2,2013-07-23 21:24:00,
2013-07-23 17:29:00,86.6,71.1,29.64,WNW,298,1.0,14.0,60,0.00,,,0.37,WUHU216DAVISVP2,2013-07-23 21:29:00,
2013-07-23 17:34:00,86.5,70.0,29.64,NW,324,4.0,12.0,58,0.00,,,0.37,WUHU216DAVISVP2,2013-07-23 21:34:00,
2013-07-23 17:39:00,86.1,70.9,29.64,WSW,243,7.0,12.0,60,0.00,,,0.37,WUHU216DAVISVP2,2013-07-23 21:39:00,
2013-07-23 17:44:00,86.0,71.3,29.64,WNW,284,0.0,12.0,61,0.00,,,0.37,WUHU216DAVISVP2,2013-07-23 21:44:00,
2013-07-23 17:49:00,85.5,71.3,29.64,West,267,3.0,12.0,62,0.00,,,0.37,WUHU216DAVISVP2,2013-07-23 21:49:00,
2013-07-23 17:55:00,85.1,71.4,29.64,NW,316,7.0,12.0,63,0.00,,,0.37,WUHU216DAVISVP2,2013-07-23 21:55:00,
2013-07-23 18:00:00,85.2,71.5,29.63,WNW,300,1.0,12.0,63,0.00,,,0.37,WUHU216DAVISVP2,2013-07-23 22:00:00,
2013-07-23 18:05:00,85.3,71.3,29.63,NW,326,0.0,9.0,63,0.00,,,0.37,WUHU216DAVISVP2,2013-07-23 22:05:00,
2013-07-23 18:10:00,85.3,71.3,29.63,North,350,5.0,8.0,63,0.00,,,0.37,WUHU216DAVISVP2,2013-07-23 22:10:00,
2013-07-23 18:15:00,85.3,70.3,29.63,WNW,299,2.0,10.0,61,0.00,,,0.37,WUHU216DAVISVP2,2013-07-23 22:15:00,
2013-07-23 18:21:00,85.2,70.7,29.63,NW,307,0.0,10.0,62,0.00,,,0.37,WUHU216DAVISVP2,2013-07-23 22:21:00,
2013-07-23 18:26:00,85.1,70.4,29.63,NNW,347,4.0,10.0,61,0.00,,,0.37,WUHU216DAVISVP2,2013-07-23 22:26:00,
2013-07-23 18:31:00,85.1,70.1,29.63,WNW,296,0.0,10.0,61,0.00,,,0.37,WUHU216DAVISVP2,2013-07-23 22:31:00,
2013-07-23 18:36:00,85.0,70.5,29.63,West,264,1.0,10.0,62,0.00,,,0.37,WUHU216DAVISVP2,2013-07-23 22:36:00,
2013-07-23 18:42:00,84.9,70.7,29.64,NW,304,1.0,10.0,62,0.00,,,0.37,WUHU216DAVISVP2,2013-07-23 22:42:00,
2013-07-23 18:47:00,84.7,70.0,29.63,WNW,296,0.0,9.0,61,0.00,,,0.37,WUHU216DAVISVP2,2013-07-23 22:47:00,
2013-07-23 18:52:00,84.6,69.9,29.64,NW,311,1.0,9.0,61,0.00,,,0.37,WUHU216DAVISVP2,2013-07-23 22:52:00,
2013-07-23 18:57:00,84.5,69.6,29.64,WNW,292,1.0,7.0,61,0.00,,,0.37,WUHU216DAVISVP2,2013-07-23 22:57:00,
2013-07-23 19:02:00,84.4,69.3,29.64,West,275,5.0,7.0,60,0.00,,,0.37,WUHU216DAVISVP2,2013-07-23 23:02:00,
2013-07-23 19:07:00,84.3,69.7,29.65,WSW,253,0.0,7.0,61,0.00,,,0.37,WUHU216DAVISVP2,2013-07-23 23:07:00,
2013-07-23 19:12:00,84.1,69.9,29.65,WNW,299,1.0,7.0,62,0.00,,,0.37,WUHU216DAVISVP2,2013-07-23 23:12:00,
2013-07-23 19:17:00,83.9,69.8,29.65,WNW,298,0.0,7.0,62,0.00,,,0.37,WUHU216DAVISVP2,2013-07-23 23:17:00,
2013-07-23 19:23:00,83.7,70.0,29.65,NW,325,0.0,6.0,63,0.00,,,0.37,WUHU216DAVISVP2,2013-07-23 23:23:00,
2013-07-23 19:28:00,83.6,69.9,29.65,West,279,0.0,6.0,63,0.00,,,0.37,WUHU216DAVISVP2,2013-07-23 23:28:00,
2013-07-23 19:33:00,83.5,70.3,29.65,SW,234,1.0,6.0,64,0.00,,,0.37,WUHU216DAVISVP2,2013-07-23 23:33:00,
2013-07-23 19:39:00,83.3,70.1,29.65,West,263,1.0,6.0,64,0.00,,,0.37,WUHU216DAVISVP2,2013-07-23 23:39:00,
2013-07-23 19:44:00,83.0,69.8,29.65,West,281,0.0,5.0,64,0.00,,,0.37,WUHU216DAVISVP2,2013-07-23 23:44:00,
2013-07-23 19:49:00,82.8,69.8,29.65,West,280,0.0,6.0,65,0.00,,,0.37,WUHU216DAVISVP2,2013-07-23 23:49:00,
2013-07-23 19:54:00,82.7,70.0,29.65,West,263,1.0,6.0,65,0.00,,,0.37,WUHU216DAVISVP2,2013-07-23 23:54:00,
2013-07-23 20:00:00,82.4,70.2,29.65,West,263,0.0,6.0,66,0.00,,,0.37,WUHU216DAVISVP2,2013-07-24 00:00:00,
2013-07-23 20:06:00,82.1,70.7,29.66,West,263,0.0,4.0,68,0.00,,,0.37,WUHU216DAVISVP2,2013-07-24 00:06:00,
2013-07-23 20:11:00,81.7,70.4,29.66,West,263,0.0,2.0,68,0.00,,,0.37,WUHU216DAVISVP2,2013-07-24 00:11:00,
2013-07-23 20:16:00,81.4,70.1,29.66,West,263,0.0,2.0,68,0.00,,,0.37,WUHU216DAVISVP2,2013-07-24 00:16:00,
2013-07-23 20:21:00,81.1,70.2,29.66,West,263,0.0,2.0,69,0.00,,,0.37,WUHU216DAVISVP2,2013-07-24 00:21:00,
2013-07-23 20:26:00,80.7,70.2,29.67,West,263,0.0,2.0,70,0.00,,,0.37,WUHU216DAVISVP2,2013-07-24 00:26:00,
2013-07-23 20:31:00,80.4,69.9,29.67,West,263,0.0,2.0,70,0.00,,,0.37,WUHU216DAVISVP2,2013-07-24 00:31:00,
2013-07-23 20:37:00,80.2,70.2,29.67,West,263,0.0,2.0,71,0.00,,,0.37,WUHU216DAVISVP2,2013-07-24 00:37:00,
2013-07-23 20:42:00,79.9,70.3,29.67,West,263,2.0,2.0,72,0.00,,,0.37,WUHU216DAVISVP2,2013-07-24 00:42:00,
2013-07-23 20:47:00,79.6,70.4,29.67,West,263,0.0,2.0,73,0.00,,,0.37,WUHU216DAVISVP2,2013-07-24 00:47:00,
2013-07-23 20:53:00,79.4,70.2,29.67,West,263,0.0,2.0,73,0.00,,,0.37,WUHU216DAVISVP2,2013-07-24 00:53:00,
2013-07-23 20:58:00,79.1,70.3,29.67,West,263,0.0,2.0,74,0.00,,,0.37,WUHU216DAVISVP2,2013-07-24 00:58:00,
2013-07-23 21:03:00,78.8,70.0,29.67,West,263,0.0,2.0,74,0.00,,,0.37,WUHU216DAVISVP2,2013-07-24 01:03:00,
2013-07-23 21:08:00,78.7,70.3,29.67,West,263,0.0,2.0,75,0.00,,,0.37,WUHU216DAVISVP2,2013-07-24 01:08:00,
2013-07-23 21:13:00,78.5,69.9,29.67,West,263,0.0,2.0,75,0.00,,,0.37,WUHU216DAVISVP2,2013-07-24 01:13:00,
2013-07-23 21:19:00,78.3,70.3,29.67,West,263,0.0,1.0,76,0.00,,,0.37,WUHU216DAVISVP2,2013-07-24 01:19:00,
2013-07-23 21:24:00,78.0,70.0,29.67,West,263,0.0,1.0,76,0.00,,,0.37,WUHU216DAVISVP2,2013-07-24 01:24:00,
2013-07-23 21:29:00,77.8,70.0,29.67,West,263,0.0,1.0,77,0.00,,,0.37,WUHU216DAVISVP2,2013-07-24 01:29:00,
2013-07-23 21:34:00,77.7,70.4,29.67,West,263,0.0,0.0,78,0.00,,,0.37,WUHU216DAVISVP2,2013-07-24 01:34:00,
2013-07-23 21:39:00,77.4,70.0,29.67,West,263,0.0,0.0,78,0.00,,,0.37,WUHU216DAVISVP2,2013-07-24 01:39:00,
2013-07-23 21:45:00,77.1,70.1,29.67,West,263,0.0,1.0,79,0.00,,,0.37,WUHU216DAVISVP2,2013-07-24 01:45:00,
2013-07-23 21:50:00,76.9,70.0,29.67,West,263,0.0,1.0,79,0.00,,,0.37,WUHU216DAVISVP2,2013-07-24 01:50:00,
2013-07-23 21:55:00,76.7,70.2,29.67,West,263,0.0,1.0,80,0.00,,,0.37,WUHU216DAVISVP2,2013-07-24 01:55:00,
2013-07-23 22:00:00,76.6,70.0,29.67,West,262,0.0,1.0,80,0.00,,,0.37,WUHU216DAVISVP2,2013-07-24 02:00:00,
2013-07-23 22:05:00,76.4,70.1,29.68,West,262,0.0,1.0,81,0.00,,,0.37,WUHU216DAVISVP2,2013-07-24 02:05:00,
2013-07-23 22:10:00,76.2,70.3,29.68,West,263,0.0,1.0,82,0.00,,,0.37,WUHU216DAVISVP2,2013-07-24 02:10:00,
2013-07-23 22:16:00,76.0,70.1,29.67,West,263,0.0,1.0,82,0.00,,,0.37,WUHU216DAVISVP2,2013-07-24 02:16:00,
2013-07-23 22:21:00,75.8,70.3,29.67,West,263,0.0,1.0,83,0.00,,,0.37,WUHU216DAVISVP2,2013-07-24 02:21:00,
2013-07-23 22:27:00,75.6,70.1,29.67,West,263,0.0,1.0,83,0.00,,,0.37,WUHU216DAVISVP2,2013-07-24 02:27:00,
2013-07-23 22:32:00,75.4,70.3,29.67,West,263,0.0,2.0,84,0.00,,,0.37,WUHU216DAVISVP2,2013-07-24 02:32:00,
2013-07-23 22:37:00,75.2,70.1,29.67,West,263,0.0,2.0,84,0.00,,,0.37,WUHU216DAVISVP2,2013-07-24 02:37:00,
2013-07-23 22:42:00,75.0,69.9,29.68,West,263,1.0,2.0,84,0.00,,,0.37,WUHU216DAVISVP2,2013-07-24 02:42:00,
2013-07-23 22:47:00,74.8,69.7,29.68,West,263,0.0,1.0,84,0.00,,,0.37,WUHU216DAVISVP2,2013-07-24 02:47:00,
2013-07-23 22:53:00,74.7,69.5,29.68,West,263,0.0,1.0,84,0.00,,,0.37,WUHU216DAVISVP2,2013-07-24 02:53:00,
2013-07-23 22:58:00,74.6,69.5,29.68,West,263,0.0,1.0,84,0.00,,,0.37,WUHU216DAVISVP2,2013-07-24 02:58:00,
2013-07-23 23:03:00,74.4,69.6,29.68,West,263,0.0,1.0,85,0.00,,,0.37,WUHU216DAVISVP2,2013-07-24 03:03:00,
2013-07-23 23:08:00,74.3,69.5,29.68,West,263,0.0,1.0,85,0.00,,,0.37,WUHU216DAVISVP2,2013-07-24 03:08:00,
2013-07-23 23:13:00,74.2,69.1,29.68,West,263,0.0,1.0,84,0.00,,,0.37,WUHU216DAVISVP2,2013-07-24 03:13:00,
2013-07-23 23:19:00,74.3,69.5,29.68,West,263,0.0,1.0,85,0.00,,,0.37,WUHU216DAVISVP2,2013-07-24 03:19:00,
2013-07-23 23:24:00,74.2,69.4,29.68,West,263,0.0,1.0,85,0.00,,,0.37,WUHU216DAVISVP2,2013-07-24 03:24:00,
2013-07-23 23:29:00,74.1,69.3,29.69,West,263,0.0,1.0,85,0.00,,,0.37,WUHU216DAVISVP2,2013-07-24 03:29:00,
2013-07-23 23:34:00,73.9,69.5,29.69,West,263,0.0,1.0,86,0.00,,,0.37,WUHU216DAVISVP2,2013-07-24 03:34:00,
2013-07-23 23:39:00,73.7,68.9,29.69,West,263,0.0,0.0,85,0.00,,,0.37,WUHU216DAVISVP2,2013-07-24 03:39:00,
2013-07-23 23:44:00,73.5,69.1,29.69,West,263,0.0,0.0,86,0.00,,,0.37,WUHU216DAVISVP2,2013-07-24 03:44:00,
2013-07-23 23:49:00,73.3,68.9,29.69,West,263,0.0,0.0,86,0.00,,,0.37,WUHU216DAVISVP2,2013-07-24 03:49:00,
2013-07-23 23:55:00,73.1,68.7,29.69,West,263,0.0,0.0,86,0.00,,,0.37,WUHU216DAVISVP2,2013-07-24 03:55:00,